Time;durP1;ratioP1;P1;durP2;ratioP2;P2;SDS_P1;SDS_P2;PMS_P1;PMS_P2;Temp;Humidity;BMP_temperature;BMP_pressure;BME280_temperature;BME280_humidity;BME280_pressure;Samples;Min_cycle;Max_cycle;Signal;HPM_P1;HPM_P2
2024/02/08 00:02:02;;;;;;;0.50;0.50;;;;;;;9.23;100.00;96916.69;5057416;28;20254;-78
2024/02/08 00:04:31;;;;;;;0.87;0.67;;;;;;;9.28;100.00;96917.13;5057364;28;20229;-78
2024/02/08 00:06:58;;;;;;;0.67;0.67;;;;;;;9.23;100.00;96914.06;5056773;28;20215;-78
2024/02/08 00:09:26;;;;;;;1.23;0.60;;;;;;;9.26;100.00;96911.16;5058476;28;20306;-78
2024/02/08 00:11:52;;;;;;;0.63;0.63;;;;;;;9.37;100.00;96909.28;5058692;28;20238;-79
2024/02/08 00:14:19;;;;;;;0.40;0.40;;;;;;;9.30;100.00;96904.69;5058811;28;20216;-79
2024/02/08 00:16:45;;;;;;;0.40;0.40;;;;;;;9.39;100.00;96910.00;5061050;28;20222;-79
2024/02/08 00:19:15;;;;;;;0.40;0.40;;;;;;;9.35;100.00;96907.75;5060511;28;20654;-79
2024/02/08 00:21:42;;;;;;;0.40;0.40;;;;;;;9.37;100.00;96906.66;5060930;28;20258;-79
2024/02/08 00:24:08;;;;;;;0.40;0.40;;;;;;;9.41;100.00;96901.94;5061045;28;20212;-79
2024/02/08 00:26:36;;;;;;;0.40;0.40;;;;;;;9.42;100.00;96908.94;5061118;28;20211;-79
2024/02/08 00:29:02;;;;;;;0.53;0.53;;;;;;;9.40;100.00;96895.00;5060847;28;20224;-79
2024/02/08 00:31:31;;;;;;;0.40;0.40;;;;;;;9.39;100.00;96893.34;5061555;28;20325;-79
2024/02/08 00:33:58;;;;;;;0.50;0.50;;;;;;;9.40;100.00;96895.00;5061277;28;20236;-79
2024/02/08 00:36:24;;;;;;;0.40;0.40;;;;;;;9.43;100.00;96894.78;5061624;28;20674;-79
2024/02/08 00:38:51;;;;;;;0.40;0.40;;;;;;;9.44;100.00;96897.28;5060772;28;20218;-79
2024/02/08 00:41:23;;;;;;;0.23;0.23;;;;;;;9.44;100.00;96896.44;5061627;28;20246;-80
2024/02/08 00:43:51;;;;;;;0.40;0.40;;;;;;;9.48;100.00;96897.88;5061645;28;20294;-79
2024/02/08 00:46:19;;;;;;;0.30;0.30;;;;;;;9.48;100.00;96897.88;5061174;28;20219;-79
2024/02/08 00:48:46;;;;;;;1.07;0.30;;;;;;;9.51;100.00;96897.59;5061110;28;20350;-79
2024/02/08 00:51:12;;;;;;;0.53;0.30;;;;;;;9.53;100.00;96895.66;5061241;28;20205;-79
2024/02/08 00:53:39;;;;;;;0.50;0.50;;;;;;;9.52;100.00;96886.06;5061143;28;20256;-79
2024/02/08 00:56:09;;;;;;;0.40;0.40;;;;;;;9.49;100.00;96889.78;5061555;28;20212;-79
2024/02/08 00:58:36;;;;;;;0.60;0.40;;;;;;;9.50;100.00;96890.66;5061056;28;20215;-79
2024/02/08 01:01:07;;;;;;;0.87;0.40;;;;;;;9.51;100.00;96892.31;5061388;28;20453;-79
2024/02/08 01:03:34;;;;;;;1.17;0.50;;;;;;;9.50;100.00;96893.28;5061660;28;20207;-79
2024/02/08 01:06:02;;;;;;;0.40;0.40;;;;;;;9.49;100.00;96894.25;5060728;28;20215;-79
2024/02/08 01:08:28;;;;;;;0.40;0.40;;;;;;;9.52;100.00;96886.91;5061000;28;20287;-80
2024/02/08 01:10:55;;;;;;;0.67;0.30;;;;;;;9.54;100.00;96886.78;5062309;28;20207;-79
2024/02/08 01:13:24;;;;;;;0.40;0.40;;;;;;;9.57;100.00;96892.66;5062022;28;20235;-79
2024/02/08 01:15:53;;;;;;;0.40;0.40;;;;;;;9.59;100.00;96889.84;5061974;28;20215;-80
2024/02/08 01:18:21;;;;;;;0.30;0.20;;;;;;;9.54;100.00;96892.06;5059787;28;20557;-79
2024/02/08 01:20:49;;;;;;;0.30;0.30;;;;;;;9.62;100.00;96890.44;5060228;28;20219;-79
2024/02/08 01:23:17;;;;;;;0.30;0.30;;;;;;;9.63;100.00;96894.75;5061466;28;20233;-79
2024/02/08 01:25:43;;;;;;;0.30;0.30;;;;;;;9.58;100.00;96894.31;5060677;28;20222;-79
2024/02/08 01:28:11;;;;;;;0.70;0.30;;;;;;;9.57;100.00;96897.06;5059219;28;20204;-79
2024/02/08 01:30:39;;;;;;;0.93;0.30;;;;;;;9.56;100.00;96892.78;5060028;28;20238;-79
2024/02/08 01:33:06;;;;;;;0.30;0.30;;;;;;;9.57;100.00;96895.28;5060510;28;20226;-79
2024/02/08 01:35:34;;;;;;;0.30;0.30;;;;;;;9.61;100.00;96887.94;5060573;28;20237;-79
2024/02/08 01:38:00;;;;;;;0.33;0.33;;;;;;;9.62;100.00;96890.44;5059740;28;20208;-80
2024/02/08 01:40:27;;;;;;;0.90;0.30;;;;;;;9.62;100.00;96889.59;5059976;28;20215;-79
2024/02/08 01:42:57;;;;;;;0.30;0.30;;;;;;;9.62;100.00;96894.88;5059901;28;20228;-79
2024/02/08 01:45:33;;;;;;;0.40;0.40;;;;;;;9.61;100.00;96887.94;5060349;28;20234;-79
2024/02/08 01:48:01;;;;;;;0.40;0.40;;;;;;;9.65;100.00;96884.91;5060472;28;20208;-80
2024/02/08 01:50:30;;;;;;;0.43;0.20;;;;;;;9.71;100.00;96883.53;5061270;28;20210;-79
2024/02/08 01:53:00;;;;;;;0.40;0.40;;;;;;;9.67;100.00;96887.44;5060363;28;20238;-79
2024/02/08 01:55:32;;;;;;;0.30;0.30;;;;;;;9.68;100.00;96878.53;5060809;28;20208;-80
2024/02/08 01:58:01;;;;;;;0.37;0.37;;;;;;;9.71;100.00;96889.66;5059871;28;20211;-80
2024/02/08 02:00:29;;;;;;;0.53;0.37;;;;;;;9.74;100.00;96891.22;5060528;28;20222;-79
2024/02/08 02:02:58;;;;;;;0.30;0.30;;;;;;;9.72;100.00;96877.31;5062091;28;20246;-79
2024/02/08 02:05:25;;;;;;;1.00;0.40;;;;;;;9.71;100.00;96888.81;5060920;28;20210;-79
2024/02/08 02:07:51;;;;;;;0.30;0.30;;;;;;;9.72;100.00;96885.25;5060745;28;20226;-80
2024/02/08 02:10:20;;;;;;;0.33;0.30;;;;;;;9.68;100.00;96879.34;5060870;28;20219;-79
2024/02/08 02:12:48;;;;;;;0.30;0.30;;;;;;;9.66;100.00;96891.03;5060123;28;20731;-79
2024/02/08 02:15:15;;;;;;;0.23;0.23;;;;;;;9.68;100.00;96879.34;5060783;28;20258;-79
2024/02/08 02:17:45;;;;;;;0.30;0.30;;;;;;;9.70;100.00;96872.16;5059788;28;20673;-79
2024/02/08 02:20:18;;;;;;;0.73;0.30;;;;;;;9.73;100.00;96881.63;5060240;28;20214;-79
2024/02/08 02:22:47;;;;;;;0.40;0.30;;;;;;;9.72;100.00;96872.03;5060311;28;20315;-79
2024/02/08 02:25:15;;;;;;;0.23;0.23;;;;;;;9.76;100.00;96868.16;5060428;28;20669;-80
2024/02/08 02:27:42;;;;;;;0.20;0.20;;;;;;;9.80;100.00;96872.22;5059823;28;20210;-80
2024/02/08 02:30:15;;;;;;;0.30;0.30;;;;;;;9.76;100.00;96868.16;5060301;28;20226;-79
2024/02/08 02:32:45;;;;;;;0.23;0.23;;;;;;;9.75;100.00;96858.56;5063184;28;20286;-80
2024/02/08 02:35:16;;;;;;;0.40;0.40;;;;;;;9.72;100.00;96859.66;5060728;28;20265;-79
2024/02/08 02:37:44;;;;;;;0.47;0.20;;;;;;;9.70;100.00;96855.50;5063338;28;20270;-79
2024/02/08 02:40:21;;;;;;;0.33;0.33;;;;;;;9.70;100.00;96855.50;5063624;28;20204;-79
2024/02/08 02:42:48;;;;;;;0.20;0.20;;;;;;;9.74;100.00;96851.63;5063081;28;20250;-79
2024/02/08 02:45:20;;;;;;;0.30;0.30;;;;;;;9.77;100.00;96851.34;5062884;28;20219;-78
2024/02/08 02:47:48;;;;;;;0.30;0.30;;;;;;;9.79;100.00;96850.25;5055016;28;20289;-79
2024/02/08 02:50:16;;;;;;;0.40;0.40;;;;;;;9.76;100.00;96845.25;5055313;28;20211;-79
2024/02/08 02:52:43;;;;;;;0.30;0.30;;;;;;;9.73;100.00;96849.97;5054855;28;20235;-79
2024/02/08 02:55:10;;;;;;;0.33;0.33;;;;;;;9.76;100.00;96850.53;5055765;28;20220;-79
2024/02/08 02:57:38;;;;;;;0.30;0.30;;;;;;;9.75;100.00;96843.59;5054904;28;20615;-79
2024/02/08 03:00:15;;;;;;;0.20;0.20;;;;;;;9.74;100.00;96841.06;5055922;28;20217;-79
2024/02/08 03:02:42;;;;;;;0.30;0.30;;;;;;;9.80;100.00;96835.28;5055419;28;20292;-79
2024/02/08 03:05:09;;;;;;;0.20;0.20;;;;;;;9.85;100.00;96827.81;5054951;28;20278;-79
2024/02/08 03:07:35;;;;;;;0.33;0.33;;;;;;;9.81;100.00;96836.94;5054854;28;20215;-79
2024/02/08 03:10:02;;;;;;;0.30;0.30;;;;;;;9.81;100.00;96827.22;5055213;28;20217;-79
2024/02/08 03:12:30;;;;;;;0.30;0.30;;;;;;;9.81;100.00;96824.59;5055176;28;20239;-79
2024/02/08 03:15:01;;;;;;;0.30;0.30;;;;;;;9.83;100.00;96824.44;5054881;28;20301;-79
2024/02/08 03:17:38;;;;;;;0.30;0.30;;;;;;;9.81;100.00;96827.22;5055166;28;20261;-79
2024/02/08 03:20:08;;;;;;;0.30;0.30;;;;;;;9.82;100.00;96822.78;5055168;28;20208;-79
2024/02/08 03:22:35;;;;;;;0.60;0.40;;;;;;;9.80;100.00;96825.53;5055207;28;20257;-79
2024/02/08 03:25:04;;;;;;;0.57;0.47;;;;;;;9.82;100.00;96817.50;5054616;28;20215;-79
2024/02/08 03:27:32;;;;;;;0.30;0.30;;;;;;;9.85;100.00;96811.97;5054363;28;20660;-79
2024/02/08 03:30:02;;;;;;;0.30;0.30;;;;;;;9.88;100.00;96816.97;5056190;28;20242;-79
2024/02/08 03:32:29;;;;;;;0.30;0.30;;;;;;;9.91;100.00;96820.16;5058581;28;20262;-77
2024/02/08 03:34:56;;;;;;;0.33;0.33;;;;;;;9.92;100.00;96823.66;5059099;28;20239;-77
2024/02/08 03:37:22;;;;;;;0.30;0.30;;;;;;;9.85;100.00;96823.34;5058687;28;20211;-79
2024/02/08 03:39:48;;;;;;;0.20;0.20;;;;;;;9.88;100.00;96827.53;5064495;28;20230;-79
2024/02/08 03:42:16;;;;;;;0.20;0.20;;;;;;;9.84;100.00;96826.94;5067274;28;20229;-79
2024/02/08 03:44:43;;;;;;;0.37;0.30;;;;;;;9.86;100.00;96829.47;5067873;28;20591;-79
2024/02/08 03:47:12;;;;;;;0.20;0.20;;;;;;;9.87;100.00;96837.25;5067932;28;20208;-79
2024/02/08 03:49:39;;;;;;;0.27;0.27;;;;;;;9.90;100.00;96836.16;5067867;28;20219;-79
2024/02/08 03:52:08;;;;;;;0.27;0.27;;;;;;;9.92;100.00;96828.94;5067248;28;20228;-79
2024/02/08 03:54:36;;;;;;;0.27;0.27;;;;;;;9.95;100.00;96820.72;5065705;28;20281;-79
2024/02/08 03:57:05;;;;;;;0.40;0.40;;;;;;;9.93;100.00;96830.59;5066121;28;20278;-79
2024/02/08 03:59:31;;;;;;;0.30;0.27;;;;;;;9.90;100.00;96836.97;5065834;28;20698;-79
2024/02/08 04:02:03;;;;;;;0.27;0.27;;;;;;;9.88;100.00;96836.28;5064975;28;20227;-79
2024/02/08 04:04:47;;;;;;;0.20;0.20;;;;;;;9.89;100.00;96834.47;5065175;28;20308;-79
2024/02/08 04:07:20;;;;;;;0.30;0.30;;;;;;;9.87;100.00;96836.41;5065622;28;20275;-79
2024/02/08 04:09:56;;;;;;;0.43;0.20;;;;;;;9.91;100.00;96827.28;5065086;28;20246;-79
2024/02/08 04:53:39;;;;;;;0.30;0.30;;;;;;;9.48;100.00;96824.03;5063605;28;20709;-79
2024/02/08 04:56:08;;;;;;;0.37;0.30;;;;;;;9.51;100.00;96821.97;5064796;28;20245;-79
2024/02/08 04:58:36;;;;;;;0.40;0.33;;;;;;;9.50;100.00;96819.44;5063234;28;20212;-79
2024/02/08 05:01:03;;;;;;;0.30;0.30;;;;;;;9.50;100.00;96822.09;5063632;28;20628;-79
2024/02/08 05:03:30;;;;;;;0.40;0.30;;;;;;;9.45;100.00;96808.44;5062767;28;20211;-79
2024/02/08 05:05:57;;;;;;;0.37;0.37;;;;;;;9.47;100.00;96814.41;5063983;28;20219;-80
2024/02/08 05:08:26;;;;;;;0.30;0.30;;;;;;;9.48;100.00;96808.19;5064140;28;20221;-79
2024/02/08 05:10:55;;;;;;;0.30;0.30;;;;;;;9.42;100.00;96809.53;5063285;28;20223;-79
2024/02/08 05:13:24;;;;;;;0.33;0.33;;;;;;;9.45;100.00;96793.47;5064656;28;20231;-79
2024/02/08 05:15:51;;;;;;;0.60;0.40;;;;;;;9.42;100.00;96803.44;5062418;28;20210;-79
2024/02/08 05:18:21;;;;;;;0.87;0.50;;;;;;;9.38;100.00;96799.41;5059304;28;20303;-79
2024/02/08 05:20:48;;;;;;;0.97;0.50;;;;;;;9.31;100.00;96793.78;5058948;28;20198;-79
2024/02/08 05:23:15;;;;;;;0.80;0.50;;;;;;;9.26;100.00;96800.44;5058536;28;20582;-79
2024/02/08 05:25:44;;;;;;;0.73;0.40;;;;;;;9.21;100.00;96798.19;5059318;28;20216;-80
2024/02/08 05:28:12;;;;;;;0.40;0.40;;;;;;;9.21;100.00;96797.34;5058301;28;20646;-79
2024/02/08 05:30:39;;;;;;;0.40;0.40;;;;;;;9.18;100.00;96801.06;5058554;28;20212;-78
2024/02/08 05:33:06;;;;;;;0.63;0.30;;;;;;;9.16;100.00;96796.91;5058206;28;20237;-79
2024/02/08 05:35:33;;;;;;;0.70;0.40;;;;;;;9.19;100.00;96804.56;5059402;28;20207;-79
2024/02/08 05:38:00;;;;;;;0.40;0.40;;;;;;;9.19;100.00;96813.28;5060382;28;20215;-79
2024/02/08 05:40:30;;;;;;;0.43;0.43;;;;;;;9.19;100.00;96805.38;5059350;28;20212;-79
2024/02/08 05:42:57;;;;;;;0.40;0.40;;;;;;;9.21;100.00;96799.97;5058539;28;20235;-78
2024/02/08 05:45:30;;;;;;;0.40;0.40;;;;;;;9.20;100.00;96799.16;5058237;28;20636;-78
2024/02/08 05:48:00;;;;;;;0.43;0.40;;;;;;;9.19;100.00;96796.66;5057606;28;20683;-78
2024/02/08 05:50:26;;;;;;;1.23;0.40;;;;;;;9.14;100.00;96794.41;5057649;28;20277;-80
2024/02/08 05:52:57;;;;;;;0.40;0.40;;;;;;;9.13;100.00;96791.91;5057577;28;20234;-78
2024/02/08 05:55:24;;;;;;;0.30;0.30;;;;;;;9.17;100.00;96793.31;5056423;28;20236;-81
2024/02/08 05:57:52;;;;;;;0.50;0.50;;;;;;;9.18;100.00;96801.06;5060784;28;20207;-80
2024/02/08 06:00:32;;;;;;;1.10;0.40;;;;;;;9.15;100.00;96782.06;5064160;28;20211;-79
2024/02/08 06:03:02;;;;;;;0.40;0.40;;;;;;;9.17;100.00;96793.31;5064668;28;20288;-80
2024/02/08 06:05:31;;;;;;;0.57;0.50;;;;;;;9.14;100.00;96783.88;5063693;28;20215;-80
2024/02/08 06:07:57;;;;;;;0.40;0.40;;;;;;;9.14;100.00;96794.41;5063056;28;20298;-79
2024/02/08 06:10:24;;;;;;;0.50;0.40;;;;;;;9.12;100.00;96790.25;5062936;28;20212;-79
2024/02/08 06:12:59;;;;;;;0.70;0.60;;;;;;;9.09;100.00;96787.84;5062023;28;20245;-79
2024/02/08 06:15:32;;;;;;;0.47;0.47;;;;;;;9.07;100.00;96789.78;5062189;28;20299;-80
2024/02/08 06:18:04;;;;;;;1.17;0.50;;;;;;;9.08;100.00;96788.81;5062915;28;20217;-79
2024/02/08 06:20:40;;;;;;;1.07;0.57;;;;;;;9.06;100.00;96796.84;5061850;28;20287;-79
2024/02/08 06:23:17;;;;;;;0.40;0.40;;;;;;;9.10;100.00;96797.41;5062152;28;20283;-80
2024/02/08 06:25:46;;;;;;;0.87;0.40;;;;;;;9.09;100.00;96799.22;5060687;28;20583;-79
2024/02/08 06:28:12;;;;;;;1.47;0.53;;;;;;;9.07;100.00;96802.97;5060117;28;20218;-78
2024/02/08 06:30:46;;;;;;;0.80;0.40;;;;;;;9.09;100.00;96806.28;5058742;28;20214;-79
2024/02/08 06:33:25;;;;;;;0.40;0.40;;;;;;;9.08;100.00;96805.47;5057965;28;20599;-79
2024/02/08 06:35:56;;;;;;;2.77;0.60;;;;;;;9.12;100.00;96806.03;5057347;28;20295;-78
2024/02/08 06:38:40;;;;;;;0.50;0.50;;;;;;;9.12;100.00;96790.25;5058159;28;20284;-79
2024/02/08 06:41:09;;;;;;;1.37;0.50;;;;;;;9.12;100.00;96806.03;5058371;28;20691;-79
2024/02/08 06:43:56;;;;;;;0.40;0.40;;;;;;;9.14;100.00;96801.47;5058689;28;20214;-79
2024/02/08 06:46:39;;;;;;;1.17;0.47;;;;;;;9.12;100.00;96800.78;5060202;28;20216;-78
2024/02/08 07:41:33;;;;;;;0.63;0.60;;;;;;;9.22;100.00;96796.38;5120478;27;20561;-80
2024/02/08 07:43:59;;;;;;;1.33;0.80;;;;;;;9.28;100.00;96798.50;5120610;28;20220;-79
2024/02/08 07:46:29;;;;;;;1.13;0.50;;;;;;;9.25;100.00;96796.13;5119657;28;20214;-79
2024/02/08 07:48:58;;;;;;;0.50;0.50;;;;;;;9.31;100.00;96809.63;5115852;28;20303;-79
2024/02/08 07:51:28;;;;;;;0.40;0.40;;;;;;;9.36;100.00;96804.78;5116576;28;20270;-80
2024/02/08 07:53:58;;;;;;;0.50;0.50;;;;;;;9.35;100.00;96803.13;5115586;28;20756;-77
2024/02/08 07:56:37;;;;;;;0.37;0.37;;;;;;;9.40;100.00;96808.00;5109266;28;20210;-77
2024/02/08 07:59:06;;;;;;;0.50;0.50;;;;;;;9.40;100.00;96802.72;5114080;28;20210;-77
2024/02/08 08:01:38;;;;;;;1.03;0.60;;;;;;;9.43;100.00;96805.13;5115102;28;20228;-80
2024/02/08 08:04:08;;;;;;;1.37;0.40;;;;;;;9.42;100.00;96803.44;5116910;28;20262;-80
2024/02/08 08:06:41;;;;;;;1.70;0.50;;;;;;;9.44;100.00;96798.88;5116251;28;20581;-80
2024/02/08 08:09:19;;;;;;;0.50;0.50;;;;;;;9.49;100.00;96799.31;5117582;28;20205;-82
2024/02/08 08:11:46;;;;;;;0.47;0.40;;;;;;;9.51;100.00;96803.50;5119502;28;20233;-81
2024/02/08 08:17:10;;;;;;;0.97;0.30;;;;;;;9.59;100.00;96794.91;5119181;28;20655;-80
2024/02/08 08:19:41;;;;;;;0.43;0.40;;;;;;;9.66;100.00;96798.72;5120877;28;20286;-80
2024/02/08 08:22:18;;;;;;;0.43;0.43;;;;;;;9.72;100.00;96790.25;5121719;28;20751;-82
2024/02/08 08:25:00;;;;;;;0.30;0.30;;;;;;;9.74;100.00;96794.41;5120175;28;20205;-80
2024/02/08 08:27:26;;;;;;;1.17;0.40;;;;;;;9.82;100.00;96796.38;5118728;28;20304;-80
2024/02/08 08:29:58;;;;;;;0.30;0.30;;;;;;;9.83;100.00;96793.63;5118385;28;20205;-78
2024/02/08 08:40:41;;;;;;;0.30;0.30;;;;;;;10.12;100.00;96791.94;5111363;28;20709;-82
2024/02/08 08:43:10;;;;;;;0.20;0.20;;;;;;;10.12;100.00;96789.31;5109601;28;20231;-81
2024/02/08 08:45:40;;;;;;;0.30;0.30;;;;;;;10.21;100.00;96792.94;5111507;28;20211;-80
2024/02/08 08:48:08;;;;;;;0.23;0.23;;;;;;;10.21;100.00;96783.19;5110572;28;20256;-80
2024/02/08 08:50:34;;;;;;;0.20;0.20;;;;;;;10.28;100.00;96789.59;5114036;28;20206;-79
2024/02/08 08:53:07;;;;;;;0.20;0.20;;;;;;;10.33;100.00;96781.28;5101151;28;20358;-80
2024/02/08 08:55:39;;;;;;;0.30;0.30;;;;;;;10.36;100.00;96781.00;5101825;28;20702;-80
2024/02/08 08:58:12;;;;;;;0.30;0.30;;;;;;;10.41;100.00;96784.06;5100483;28;20686;-81
2024/02/08 09:00:46;;;;;;;0.43;0.43;;;;;;;10.45;100.00;96780.19;5096811;28;20675;-80
2024/02/08 09:03:25;;;;;;;0.30;0.30;;;;;;;10.48;100.00;96777.25;5096046;28;20724;-80
2024/02/08 09:05:56;;;;;;;0.20;0.20;;;;;;;10.44;100.00;96778.50;5095552;28;20212;-79
2024/02/08 09:08:25;;;;;;;0.30;0.30;;;;;;;10.43;100.00;96782.09;5096885;28;20203;-79
2024/02/08 09:10:52;;;;;;;0.47;0.33;;;;;;;10.44;100.00;96783.78;5096865;28;20204;-80
2024/02/08 09:13:19;;;;;;;0.53;0.40;;;;;;;10.48;100.00;96785.19;5095697;28;20228;-79
2024/02/08 09:15:55;;;;;;;0.30;0.30;;;;;;;10.43;100.00;96782.09;5095871;28;20257;-79
2024/02/08 09:18:55;;;;;;;0.43;0.40;;;;;;;10.43;100.00;96776.81;5093334;28;20286;-79
2024/02/08 09:21:10;;;;;;;0.33;0.33;;;;;;;10.42;100.00;96775.16;5094375;28;20227;-79
2024/02/08 09:23:38;;;;;;;0.70;0.37;;;;;;;10.46;100.00;96776.56;5095963;28;20727;-79
2024/02/08 09:26:11;;;;;;;0.50;0.50;;;;;;;10.48;100.00;96774.59;5096314;28;20255;-79
2024/02/08 09:28:42;;;;;;;0.50;0.37;;;;;;;10.55;100.00;96781.00;5096714;28;20216;-79
2024/02/08 09:31:14;;;;;;;0.60;0.50;;;;;;;10.55;100.00;96781.00;5096773;28;20293;-79
2024/02/08 09:33:47;;;;;;;0.47;0.40;;;;;;;10.57;100.00;96773.75;5096424;28;20289;-79
2024/02/08 09:36:14;;;;;;;0.40;0.40;;;;;;;10.61;100.00;96769.88;5095940;28;20206;-79
2024/02/08 09:38:45;;;;;;;0.77;0.40;;;;;;;10.62;100.00;96774.19;5095356;28;20209;-79
2024/02/08 09:41:16;;;;;;;1.03;0.23;;;;;;;10.72;100.00;96775.03;5095930;28;20231;-79
2024/02/08 09:43:44;;;;;;;1.13;0.60;;;;;;;10.80;100.00;96780.44;5096288;28;20214;-79
2024/02/08 09:46:49;;;;;;;0.50;0.50;;;;;;;10.96;100.00;96775.44;5095676;28;20216;-78
2024/02/08 09:49:12;;;;;;;0.77;0.70;;;;;;;10.99;100.00;96775.13;5095206;28;20216;-78
2024/02/08 09:51:46;;;;;;;0.33;0.30;;;;;;;11.06;100.00;96768.34;5094885;28;20229;-80
2024/02/08 09:54:16;;;;;;;0.40;0.40;;;;;;;11.13;100.00;96772.06;5095457;28;20207;-79
2024/02/08 09:56:50;;;;;;;0.30;0.30;;;;;;;11.15;100.00;96767.47;5094488;28;20254;-79
2024/02/08 09:59:33;;;;;;;1.27;0.40;;;;;;;11.14;100.00;96769.25;5094090;28;20260;-79
2024/02/08 10:02:04;;;;;;;0.60;0.50;;;;;;;11.17;100.00;96774.28;5094929;28;20233;-79
2024/02/08 10:04:32;;;;;;;0.40;0.40;;;;;;;11.10;100.00;96761.75;5092753;28;20213;-79
2024/02/08 10:07:06;;;;;;;0.63;0.40;;;;;;;11.16;100.00;96766.50;5094383;28;20287;-79
2024/02/08 10:09:37;;;;;;;0.63;0.50;;;;;;;11.20;100.00;96766.06;5094588;28;20212;-79
2024/02/08 10:12:06;;;;;;;0.57;0.40;;;;;;;11.25;100.00;96763.00;5094393;28;20261;-79
2024/02/08 10:14:34;;;;;;;0.47;0.47;;;;;;;11.28;100.00;96760.91;5094939;28;20577;-79
2024/02/08 10:17:17;;;;;;;0.40;0.40;;;;;;;11.33;100.00;96752.53;5094488;28;20213;-79
2024/02/08 10:22:35;;;;;;;0.67;0.50;;;;;;;11.45;100.00;96746.09;5094690;28;20222;-79
2024/02/08 10:27:56;;;;;;;0.77;0.40;;;;;;;11.41;100.00;96744.69;5094517;28;20277;-79
2024/02/08 10:30:25;;;;;;;0.30;0.30;;;;;;;11.44;100.00;96739.94;5093886;28;20214;-80
2024/02/08 10:32:53;;;;;;;0.40;0.40;;;;;;;11.52;100.00;96744.53;5094003;28;20643;-79
2024/02/08 10:35:21;;;;;;;0.40;0.40;;;;;;;11.45;100.00;96731.06;5093470;28;20207;-79
2024/02/08 10:37:47;;;;;;;0.50;0.33;;;;;;;11.53;100.00;96727.66;5093573;28;20631;-79
2024/02/08 10:40:29;;;;;;;0.30;0.30;;;;;;;11.62;100.00;96722.34;5094722;28;20303;-79
2024/02/08 10:42:59;;;;;;;0.40;0.30;;;;;;;11.77;100.00;96714.78;5094090;28;20222;-79
2024/02/08 10:45:32;;;;;;;0.30;0.30;;;;;;;11.71;100.00;96715.34;5094180;28;20737;-79
2024/02/08 10:48:03;;;;;;;1.10;0.40;;;;;;;11.69;100.00;96712.03;5094949;28;20219;-80
2024/02/08 10:50:34;;;;;;;0.30;0.30;;;;;;;11.69;100.00;96707.56;5095406;28;20205;-80
2024/02/08 10:53:03;;;;;;;1.23;0.40;;;;;;;11.63;100.00;96713.44;5095563;28;20317;-80
2024/02/08 10:55:36;;;;;;;1.00;0.50;;;;;;;11.56;100.00;96717.63;5094956;28;20681;-80
2024/02/08 10:58:28;;;;;;;0.50;0.50;;;;;;;11.43;100.00;96713.66;5096417;28;20428;-78
2024/02/08 11:03:52;;;;;;;0.40;0.40;;;;;;;11.24;100.00;96711.06;5096345;28;20286;-80
2024/02/08 11:06:32;;;;;;;0.77;0.40;;;;;;;11.21;100.00;96704.28;5094444;28;20267;-80
2024/02/08 11:09:15;;;;;;;0.40;0.40;;;;;;;11.18;100.00;96707.19;5093585;28;20748;-80
2024/02/08 11:11:49;;;;;;;0.40;0.40;;;;;;;11.18;100.00;96699.25;5094682;28;20593;-80
2024/02/08 11:14:19;;;;;;;0.47;0.47;;;;;;;11.26;100.00;96698.56;5093474;28;20211;-79
2024/02/08 11:16:51;;;;;;;0.63;0.60;;;;;;;11.29;100.00;96690.31;5095956;28;20234;-82
2024/02/08 11:19:19;;;;;;;0.60;0.60;;;;;;;11.34;100.00;96691.56;5094890;28;20209;-82
2024/02/08 11:21:49;;;;;;;0.50;0.50;;;;;;;11.45;100.00;96693.19;5094566;28;20238;-81
2024/02/08 11:24:28;;;;;;;0.67;0.60;;;;;;;11.52;100.00;96678.38;5093214;28;20214;-80
2024/02/08 11:37:17;;;;;;;0.50;0.50;;;;;;;12.04;100.00;96652.03;5092702;28;20561;-79
2024/02/08 11:39:46;;;;;;;0.20;0.20;;;;;;;12.16;100.00;96639.41;5092856;28;20214;-79
2024/02/08 11:42:15;;;;;;;0.50;0.50;;;;;;;12.14;100.00;96646.66;5092496;28;20233;-79
2024/02/08 11:44:43;;;;;;;0.67;0.57;;;;;;;12.24;100.00;96634.19;5093285;28;20593;-79
2024/02/08 11:47:18;;;;;;;0.33;0.33;;;;;;;12.24;100.00;96631.53;5092258;28;20214;-79
2024/02/08 11:49:53;;;;;;;0.40;0.40;;;;;;;12.23;100.00;96632.53;5092540;28;20267;-79
2024/02/08 11:52:23;;;;;;;0.50;0.40;;;;;;;12.19;100.00;96615.25;5092775;28;20258;-79
2024/02/08 11:55:00;;;;;;;0.37;0.37;;;;;;;12.17;100.00;96622.53;5092616;28;20214;-79
2024/02/08 11:57:36;;;;;;;0.20;0.20;;;;;;;12.24;100.00;96618.28;5091661;28;20222;-79
2024/02/08 12:00:15;;;;;;;0.30;0.30;;;;;;;12.26;100.00;96614.50;5091391;28;20206;-80
2024/02/08 12:02:47;;;;;;;0.40;0.40;;;;;;;12.23;100.00;96614.81;5091480;28;20272;-80
2024/02/08 12:05:15;;;;;;;0.70;0.50;;;;;;;12.28;100.00;96601.94;5091378;28;20310;-80
2024/02/08 12:07:45;;;;;;;1.70;0.57;;;;;;;12.30;100.00;96612.38;5091100;28;20214;-78
2024/02/08 12:10:15;;;;;;;1.40;0.60;;;;;;;12.31;100.00;96604.28;5092940;28;20655;-78
2024/02/08 12:12:43;;;;;;;1.00;0.40;;;;;;;12.36;100.00;96598.53;5093005;28;20237;-78
2024/02/08 12:15:10;;;;;;;2.27;0.63;;;;;;;12.35;100.00;96580.97;5092901;28;20217;-80
2024/02/08 12:17:40;;;;;;;1.80;0.60;;;;;;;12.40;100.00;96573.41;5092034;28;20259;-78
2024/02/08 12:20:09;;;;;;;2.37;1.00;;;;;;;12.50;100.00;96571.47;5092497;28;20305;-78
2024/02/08 12:22:36;;;;;;;2.43;0.60;;;;;;;12.52;100.00;96570.31;5091972;28;20246;-78
2024/02/08 12:25:07;;;;;;;5.53;0.70;;;;;;;12.59;100.00;96586.44;5092077;28;20220;-79
2024/02/08 12:27:35;;;;;;;2.47;0.80;;;;;;;12.69;100.00;96572.09;5094445;28;20281;-79
2024/02/08 12:30:04;;;;;;;2.60;0.60;;;;;;;12.68;100.00;96585.50;5096308;28;20214;-79
2024/02/08 12:32:33;;;;;;;4.83;0.93;;;;;;;12.63;100.00;96579.81;5096398;28;20241;-79
2024/02/08 12:35:12;;;;;;;2.07;0.90;;;;;;;12.61;100.00;96595.91;5096469;28;20612;-79
2024/02/08 12:37:41;;;;;;;2.87;0.63;;;;;;;12.69;100.00;96589.81;5095964;28;20202;-78
2024/02/08 12:40:12;;;;;;;3.13;0.70;;;;;;;12.70;100.00;96583.50;5096372;28;20218;-78
2024/02/08 12:42:40;;;;;;;3.67;1.00;;;;;;;12.67;100.00;96579.38;5096412;28;20240;-79
2024/02/08 12:45:10;;;;;;;2.17;0.70;;;;;;;12.73;100.00;96588.50;5096030;28;20205;-79
2024/02/08 12:47:39;;;;;;;2.87;1.07;;;;;;;12.74;100.00;96584.88;5095380;28;20207;-79
2024/02/08 12:50:08;;;;;;;2.13;0.90;;;;;;;12.79;100.00;96577.28;5095871;28;20210;-79
2024/02/08 12:52:34;;;;;;;3.83;1.20;;;;;;;12.77;100.00;96584.56;5096212;28;20229;-79
2024/02/08 12:55:01;;;;;;;2.63;1.20;;;;;;;12.75;100.00;96584.72;5095905;28;20203;-78
2024/02/08 12:57:29;;;;;;;4.00;0.83;;;;;;;12.73;100.00;96580.56;5095663;28;20211;-79
2024/02/08 13:00:02;;;;;;;3.17;1.40;;;;;;;12.68;100.00;96577.53;5096648;28;20216;-79
2024/02/08 13:02:33;;;;;;;4.33;1.47;;;;;;;12.64;100.00;96589.44;5095754;28;20301;-79
2024/02/08 13:05:01;;;;;;;3.50;1.10;;;;;;;12.62;100.00;96594.06;5094933;28;20295;-79
2024/02/08 13:07:28;;;;;;;2.43;0.90;;;;;;;12.66;100.00;96582.19;5094208;28;20202;-79
2024/02/08 13:10:02;;;;;;;3.73;1.00;;;;;;;12.71;100.00;96587.84;5094200;28;20215;-80
2024/02/08 13:12:31;;;;;;;3.00;0.97;;;;;;;12.75;100.00;96583.88;5093919;28;20278;-78
2024/02/08 13:15:02;;;;;;;5.00;1.37;;;;;;;12.72;100.00;96577.06;5096407;28;20212;-78
2024/02/08 13:17:33;;;;;;;2.23;1.03;;;;;;;12.81;100.00;96576.16;5095407;28;20264;-78
2024/02/08 13:20:11;;;;;;;7.00;1.27;;;;;;;12.87;100.00;96579.97;5095894;28;20302;-78
2024/02/08 13:22:38;;;;;;;3.07;1.10;;;;;;;12.88;100.00;96563.91;5095098;28;20231;-78
2024/02/08 13:25:11;;;;;;;3.10;1.20;;;;;;;12.83;100.00;96560.09;5094895;28;20218;-79
2024/02/08 13:27:40;;;;;;;2.57;1.03;;;;;;;12.86;100.00;96550.00;5094621;28;20696;-78
2024/02/08 13:30:14;;;;;;;3.70;1.20;;;;;;;12.81;100.00;96543.50;5095140;28;20553;-78
2024/02/08 13:32:41;;;;;;;4.27;1.30;;;;;;;12.80;100.00;96536.53;5095223;28;20219;-78
2024/02/08 13:35:08;;;;;;;4.30;0.87;;;;;;;12.78;100.00;96544.63;5095134;28;20218;-78
2024/02/08 13:37:35;;;;;;;4.07;1.20;;;;;;;12.80;100.00;96532.06;5094952;28;20259;-78
2024/02/08 13:40:03;;;;;;;5.07;1.63;;;;;;;12.74;100.00;96530.06;5095258;28;20742;-78
2024/02/08 13:42:30;;;;;;;6.97;1.67;;;;;;;12.78;100.00;96522.63;5094952;28;20276;-78
2024/02/08 13:44:58;;;;;;;4.27;1.40;;;;;;;12.79;100.00;96524.28;5095069;28;20290;-78
2024/02/08 13:47:25;;;;;;;3.03;1.27;;;;;;;12.79;98.82;96513.66;5095004;28;20202;-78